createdAt,value
2019-04-10T00:01:09.756Z,99.90
2019-04-10T00:03:41.740Z,99.90
2019-04-10T00:06:08.787Z,99.90
2019-04-10T00:08:37.324Z,99.90
2019-04-10T00:11:05.941Z,99.90
2019-04-10T00:13:34.418Z,99.90
2019-04-10T00:16:03.579Z,99.90
2019-04-10T00:18:32.122Z,99.90
2019-04-10T00:21:00.832Z,99.90
2019-04-10T00:23:29.292Z,99.90
2019-04-10T00:25:57.706Z,99.90
2019-04-10T00:28:26.107Z,99.90
2019-04-10T00:30:55.574Z,99.90
2019-04-10T00:33:24.964Z,99.90
2019-04-10T00:35:53.987Z,99.90
2019-04-10T00:38:22.539Z,99.90
2019-04-10T00:40:51.937Z,99.90
2019-04-10T00:43:20.442Z,99.90
2019-04-10T00:45:49.415Z,99.90
2019-04-10T00:48:17.919Z,99.90
2019-04-10T00:50:46.584Z,99.90
2019-04-10T00:53:15.122Z,99.90
2019-04-10T00:55:44.053Z,99.90
2019-04-10T00:58:12.511Z,99.90
2019-04-10T01:00:41.218Z,99.90
2019-04-10T01:03:10.070Z,99.90
2019-04-10T01:05:39.545Z,99.90
2019-04-10T01:08:08.688Z,99.90
2019-04-10T01:10:37.323Z,99.90
2019-04-10T01:13:05.735Z,99.90
2019-04-10T01:15:34.503Z,99.90
2019-04-10T01:18:02.919Z,99.90
2019-04-10T01:20:31.379Z,99.90
2019-04-10T01:22:59.851Z,99.90
2019-04-10T01:25:28.382Z,99.90
2019-04-10T01:27:57.130Z,99.90
2019-04-10T01:30:26.408Z,99.90
2019-04-10T01:32:54.959Z,99.90
2019-04-10T01:35:24.464Z,99.90
2019-04-10T01:37:57.847Z,99.90
2019-04-10T01:40:23.448Z,99.90
2019-04-10T01:43:02.465Z,99.90
2019-04-10T01:45:22.047Z,99.90
2019-04-10T01:47:51.206Z,99.90
2019-04-10T01:50:20.100Z,99.90
2019-04-10T01:52:49.143Z,99.90
2019-04-10T01:55:25.358Z,99.90
2019-04-10T01:57:48.418Z,99.90
2019-04-10T02:00:19.538Z,99.90
2019-04-10T02:02:53.996Z,99.90
2019-04-10T02:05:22.845Z,99.90
2019-04-10T02:08:02.133Z,99.90
2019-04-10T02:10:40.844Z,99.90
2019-04-10T02:13:09.472Z,99.90
2019-04-10T02:15:38.462Z,99.90
2019-04-10T02:18:07.049Z,99.90
2019-04-10T02:20:35.450Z,99.90
2019-04-10T02:23:03.926Z,99.90
2019-04-10T02:25:32.705Z,99.90
2019-04-10T02:28:20.772Z,99.90
2019-04-10T02:30:50.108Z,99.90
2019-04-10T02:33:18.725Z,99.90
2019-04-10T02:35:47.657Z,99.90
2019-04-10T02:38:30.958Z,99.90
2019-04-10T02:40:47.467Z,99.90
2019-04-10T02:43:16.430Z,99.90
2019-04-10T02:45:44.932Z,99.90
2019-04-10T02:48:14.881Z,99.90
2019-04-10T02:50:44.935Z,99.90
2019-04-10T02:53:15.369Z,99.90
2019-04-10T02:55:43.937Z,99.90
2019-04-10T02:58:14.069Z,99.90
2019-04-10T03:00:43.991Z,99.90
2019-04-10T03:03:13.854Z,99.90
2019-04-10T03:05:42.705Z,99.90
2019-04-10T03:08:12.993Z,99.90
2019-04-10T03:10:48.669Z,99.90
2019-04-10T03:13:13.569Z,99.90
2019-04-10T03:15:43.488Z,99.90
2019-04-10T03:18:12.739Z,99.90
2019-04-10T03:20:42.583Z,99.90
2019-04-10T03:23:11.547Z,99.90
2019-04-10T03:25:40.031Z,99.90
2019-04-10T03:28:09.109Z,99.90
2019-04-10T03:30:39.451Z,99.90
2019-04-10T03:33:19.116Z,99.90
2019-04-10T03:35:48.098Z,99.90
2019-04-10T03:38:18.168Z,99.90
2019-04-10T03:40:46.679Z,99.90
2019-04-10T03:43:15.096Z,99.90
2019-04-10T03:45:44.479Z,99.90
2019-04-10T03:48:13.788Z,99.90
2019-04-10T03:50:42.383Z,99.90
2019-04-10T03:53:10.906Z,99.90
2019-04-10T03:55:39.390Z,99.90
2019-04-10T03:58:07.838Z,99.90
2019-04-10T04:00:36.576Z,99.90
2019-04-10T04:03:04.989Z,99.90
2019-04-10T04:05:33.410Z,99.90
2019-04-10T04:08:01.883Z,99.90
2019-04-10T04:10:30.768Z,99.90
2019-04-10T04:13:00.137Z,99.90
2019-04-10T04:15:28.751Z,99.90
2019-04-10T04:17:57.209Z,99.90
2019-04-10T04:20:26.561Z,99.90
2019-04-10T04:22:57.076Z,99.90
2019-04-10T04:25:26.017Z,99.90
2019-04-10T04:27:54.545Z,99.90
2019-04-10T04:30:22.989Z,99.90
2019-04-10T04:32:51.394Z,99.90
2019-04-10T04:35:20.027Z,99.90
2019-04-10T04:37:48.723Z,99.90
2019-04-10T04:40:17.532Z,99.90
2019-04-10T04:42:47.069Z,99.90
2019-04-10T04:45:16.032Z,99.90
2019-04-10T04:47:44.987Z,99.90
2019-04-10T04:50:14.019Z,99.90
2019-04-10T04:52:43.444Z,99.90
2019-04-10T04:55:12.247Z,99.90
2019-04-10T04:57:41.998Z,99.90
2019-04-10T05:00:17.277Z,99.90
2019-04-10T05:02:46.942Z,99.90
2019-04-10T05:05:16.401Z,99.90
2019-04-10T05:07:54.620Z,99.90
2019-04-10T05:10:15.402Z,99.90
2019-04-10T05:12:45.091Z,99.90
2019-04-10T05:15:13.769Z,99.90
2019-04-10T05:17:42.193Z,99.90
2019-04-10T05:20:11.179Z,99.90
2019-04-10T05:22:39.748Z,99.90
2019-04-10T05:25:08.997Z,99.90
2019-04-10T05:27:37.471Z,99.90
2019-04-10T05:30:06.710Z,99.90
2019-04-10T05:32:35.446Z,99.90
2019-04-10T05:35:08.178Z,99.90
2019-04-10T05:37:36.296Z,99.90
2019-04-10T05:40:07.582Z,99.90
2019-04-10T05:42:37.287Z,99.90
2019-04-10T05:45:07.177Z,99.90
2019-04-10T05:47:36.612Z,99.90
2019-04-10T05:50:06.351Z,99.90
2019-04-10T05:52:35.346Z,99.90
2019-04-10T05:55:04.471Z,99.90
2019-04-10T05:57:32.959Z,99.90
2019-04-10T06:00:02.724Z,99.90
2019-04-10T06:02:32.111Z,99.90
2019-04-10T06:05:00.730Z,99.90
2019-04-10T06:07:29.420Z,99.90
2019-04-10T06:10:05.010Z,99.90
2019-04-10T06:12:30.654Z,99.90
2019-04-10T06:14:59.271Z,99.90
2019-04-10T06:17:27.683Z,99.90
2019-04-10T06:19:56.662Z,99.90
2019-04-10T06:22:26.314Z,99.90
2019-04-10T06:24:54.882Z,99.90
2019-04-10T06:27:24.176Z,99.90
2019-04-10T06:29:53.171Z,99.90
2019-04-10T06:32:21.691Z,99.90
2019-04-10T06:34:50.292Z,99.90
2019-04-10T06:37:18.765Z,99.90
2019-04-10T06:39:47.219Z,99.90
2019-04-10T06:42:16.350Z,99.90
2019-04-10T06:44:45.975Z,99.90
2019-04-10T06:47:14.603Z,99.90
2019-04-10T06:49:43.002Z,99.90
2019-04-10T06:52:11.851Z,99.90
2019-04-10T06:54:40.717Z,99.90
2019-04-10T06:57:10.373Z,99.90
2019-04-10T06:59:39.855Z,99.90
2019-04-10T07:02:16.636Z,99.90
2019-04-10T07:04:45.969Z,99.90
2019-04-10T07:07:12.453Z,99.90
2019-04-10T07:09:39.946Z,99.90
2019-04-10T07:12:08.826Z,99.90
2019-04-10T07:14:38.470Z,99.90
2019-04-10T07:17:08.866Z,99.90
2019-04-10T07:19:37.316Z,99.90
2019-04-10T07:22:11.145Z,99.90
2019-04-10T07:24:39.573Z,99.90
2019-04-10T07:27:06.365Z,99.90
2019-04-10T07:29:34.759Z,99.90
2019-04-10T07:32:07.754Z,99.90
2019-04-10T07:34:34.118Z,99.90
2019-04-10T07:37:02.749Z,99.90
2019-04-10T07:39:33.534Z,99.90
2019-04-10T07:42:02.100Z,99.90
2019-04-10T07:44:30.554Z,99.90
2019-04-10T07:47:00.704Z,99.90
2019-04-10T07:49:31.158Z,99.90
2019-04-10T07:51:59.234Z,99.90
2019-04-10T07:54:28.757Z,99.90
2019-04-10T07:56:57.919Z,99.90
2019-04-10T07:59:27.172Z,99.90
2019-04-10T08:01:55.957Z,99.90
2019-04-10T08:04:24.469Z,99.90
2019-04-10T08:06:52.902Z,99.90
2019-04-10T08:09:21.300Z,99.90
2019-04-10T08:11:50.924Z,99.90
2019-04-10T08:14:19.661Z,99.90
2019-04-10T08:16:48.190Z,99.90
2019-04-10T08:19:16.708Z,99.90
2019-04-10T08:21:45.086Z,99.90
2019-04-10T08:24:13.809Z,99.90
2019-04-10T08:26:43.029Z,99.90
2019-04-10T08:29:12.056Z,99.90
2019-04-10T08:31:40.521Z,99.90
2019-04-10T08:34:08.942Z,99.90
2019-04-10T08:36:37.729Z,99.90
2019-04-10T08:39:07.402Z,99.90
2019-04-10T08:44:04.473Z,99.80
2019-04-10T08:46:33.624Z,99.90
2019-04-10T08:49:02.179Z,99.90
2019-04-10T08:51:31.062Z,99.90
2019-04-10T08:54:00.563Z,99.90
2019-04-10T08:56:30.199Z,99.90
2019-04-10T08:58:59.319Z,99.90
2019-04-10T09:01:28.060Z,99.90
2019-04-10T09:03:57.467Z,99.80
2019-04-10T09:06:25.937Z,99.60
2019-04-10T09:08:54.357Z,99.60
2019-04-10T09:11:26.525Z,99.50
2019-04-10T09:13:53.060Z,99.20
2019-04-10T09:16:22.528Z,98.90
2019-04-10T09:18:51.630Z,98.80
2019-04-10T09:21:20.011Z,98.90
2019-04-10T09:23:52.793Z,98.70
2019-04-10T09:26:18.643Z,98.30
2019-04-10T09:28:47.051Z,98.00
2019-04-10T09:31:15.796Z,97.50
2019-04-10T09:33:45.297Z,97.30
2019-04-10T09:36:13.743Z,97.00
2019-04-10T09:38:43.932Z,96.70
2019-04-10T09:41:12.485Z,96.80
2019-04-10T09:43:42.067Z,96.50
2019-04-10T09:46:11.262Z,96.20
2019-04-10T09:48:40.075Z,96.10
2019-04-10T09:51:09.670Z,95.60
2019-04-10T09:53:39.190Z,95.10
2019-04-10T09:56:07.682Z,94.40
2019-04-10T09:58:36.360Z,94.30
2019-04-10T10:01:08.237Z,94.30
2019-04-10T10:03:37.224Z,94.60
2019-04-10T10:06:06.900Z,94.60
2019-04-10T10:08:35.948Z,93.60
2019-04-10T10:11:04.595Z,93.10
2019-04-10T10:13:33.955Z,93.20
2019-04-10T10:16:02.871Z,93.00
2019-04-10T10:18:31.548Z,93.00
2019-04-10T10:21:00.019Z,93.10
2019-04-10T10:23:29.613Z,92.70
2019-04-10T10:25:58.234Z,91.90
2019-04-10T10:28:27.045Z,92.40
2019-04-10T10:30:55.736Z,92.10
2019-04-10T10:33:24.258Z,91.90
2019-04-10T10:35:53.573Z,91.50
2019-04-10T10:38:23.080Z,92.10
2019-04-10T10:40:52.771Z,90.90
2019-04-10T10:43:22.463Z,90.30
2019-04-10T10:45:51.294Z,90.30
2019-04-10T10:48:19.916Z,90.50
2019-04-10T10:50:48.451Z,90.80
2019-04-10T10:53:16.890Z,90.40
2019-04-10T10:55:45.534Z,90.10
2019-04-10T10:58:14.114Z,90.00
2019-04-10T11:00:43.468Z,89.30
2019-04-10T11:03:11.909Z,88.60
2019-04-10T11:05:40.379Z,88.60
2019-04-10T11:08:08.980Z,87.80
2019-04-10T11:10:37.536Z,88.10
2019-04-10T11:13:06.589Z,88.50
2019-04-10T11:15:37.708Z,88.10
2019-04-10T11:18:06.429Z,87.30
2019-04-10T11:20:36.292Z,86.70
2019-04-10T11:23:06.149Z,87.50
2019-04-10T11:25:35.846Z,85.90
2019-04-10T11:28:08.999Z,86.40
2019-04-10T11:30:37.467Z,85.80
2019-04-10T11:33:06.210Z,85.80
2019-04-10T11:35:34.939Z,85.70
2019-04-10T11:38:05.794Z,85.60
2019-04-10T11:40:34.301Z,85.40
2019-04-10T11:43:05.098Z,85.50
2019-04-10T11:45:41.314Z,85.00
2019-04-10T11:48:04.740Z,84.00
2019-04-10T11:50:34.824Z,83.50
2019-04-10T11:53:04.530Z,83.90
2019-04-10T11:55:42.854Z,84.20
2019-04-10T11:58:03.148Z,84.50
2019-04-10T12:00:50.708Z,83.70
2019-04-10T12:03:12.933Z,83.30
2019-04-10T12:06:04.241Z,82.00
2019-04-10T12:13:30.315Z,80.50
2019-04-10T12:15:58.980Z,80.40
2019-04-10T12:18:27.705Z,80.70
2019-04-10T12:20:57.636Z,79.80
2019-04-10T12:23:27.141Z,79.40
2019-04-10T12:25:55.720Z,79.20
2019-04-10T12:28:24.118Z,79.70
2019-04-10T12:30:53.366Z,79.80
2019-04-10T12:33:21.835Z,79.20
2019-04-10T12:35:50.250Z,77.60
2019-04-10T12:38:19.325Z,77.90
2019-04-10T12:40:47.833Z,77.70
2019-04-10T12:43:16.744Z,77.50
2019-04-10T12:45:46.442Z,76.70
2019-04-10T12:48:14.927Z,76.70
2019-04-10T12:50:43.694Z,76.80
2019-04-10T12:53:12.207Z,76.60
2019-04-10T12:55:41.818Z,76.50
2019-04-10T12:58:13.578Z,77.10
2019-04-10T13:00:42.838Z,77.60
2019-04-10T13:03:11.470Z,76.50
2019-04-10T13:05:41.035Z,77.20
2019-04-10T13:08:19.124Z,76.40
2019-04-10T13:10:43.472Z,76.50
2019-04-10T13:13:13.550Z,77.10
2019-04-10T13:15:42.154Z,76.00
2019-04-10T13:18:10.607Z,73.80
2019-04-10T13:20:39.908Z,74.30
2019-04-10T13:23:08.687Z,73.70
2019-04-10T13:25:37.110Z,73.20
2019-04-10T13:28:05.605Z,73.30
2019-04-10T13:30:44.685Z,72.70
2019-04-10T13:33:05.326Z,71.70
2019-04-10T13:35:34.390Z,71.90
2019-04-10T13:38:03.195Z,72.80
2019-04-10T13:40:32.030Z,72.80
2019-04-10T13:43:01.266Z,73.20
2019-04-10T13:45:31.066Z,73.30
2019-04-10T13:47:59.783Z,73.30
2019-04-10T13:50:28.604Z,73.30
2019-04-10T13:52:57.526Z,73.70
2019-04-10T13:55:26.413Z,73.60
2019-04-10T13:57:55.070Z,72.70
2019-04-10T14:00:31.314Z,72.50
2019-04-10T14:03:19.755Z,73.00
2019-04-10T14:05:49.438Z,71.90
2019-04-10T14:08:18.655Z,71.10
2019-04-10T14:10:47.370Z,71.00
2019-04-10T14:13:15.806Z,71.10
2019-04-10T14:15:44.356Z,70.70
2019-04-10T14:18:12.934Z,70.40
2019-04-10T14:20:41.593Z,70.60
2019-04-10T14:23:12.553Z,71.10
2019-04-10T14:26:00.480Z,71.20
2019-04-10T14:28:31.254Z,71.70
2019-04-10T14:31:02.025Z,71.50
2019-04-10T14:33:30.653Z,72.40
2019-04-10T14:35:59.982Z,71.90
2019-04-10T14:38:28.684Z,71.60
2019-04-10T14:40:57.739Z,70.70
2019-04-10T14:43:26.673Z,70.60
2019-04-10T14:45:55.074Z,71.40
2019-04-10T14:48:24.441Z,71.40
2019-04-10T14:50:53.151Z,71.40
2019-04-10T14:53:22.658Z,70.90
2019-04-10T14:55:51.506Z,71.30
2019-04-10T14:58:24.009Z,71.50
2019-04-10T15:00:50.351Z,72.00
2019-04-10T15:03:20.243Z,72.10
2019-04-10T15:05:52.236Z,71.90
2019-04-10T15:08:19.682Z,70.80
2019-04-10T15:10:48.426Z,69.60
2019-04-10T15:13:20.781Z,68.80
2019-04-10T15:15:48.344Z,68.40
2019-04-10T15:18:16.929Z,67.80
2019-04-10T15:20:45.667Z,65.70
2019-04-10T15:23:15.286Z,65.70
2019-04-10T15:25:43.866Z,66.10
2019-04-10T15:28:12.295Z,65.50
2019-04-10T15:30:40.699Z,65.70
2019-04-10T15:33:10.124Z,66.00
2019-04-10T15:35:38.611Z,67.20
2019-04-10T15:38:07.030Z,67.30
2019-04-10T15:40:36.461Z,67.80
2019-04-10T15:43:05.149Z,66.80
2019-04-10T15:45:33.619Z,67.00
2019-04-10T15:48:03.117Z,67.80
2019-04-10T15:50:32.597Z,68.00
2019-04-10T15:53:02.102Z,68.30
2019-04-10T15:55:30.671Z,68.10
2019-04-10T15:58:01.213Z,67.40
2019-04-10T16:00:29.487Z,67.40
2019-04-10T16:02:57.922Z,67.40
2019-04-10T16:05:26.331Z,68.00
2019-04-10T16:07:55.317Z,67.50
2019-04-10T16:10:28.899Z,67.90
2019-04-10T16:13:02.511Z,67.80
2019-04-10T16:15:36.665Z,67.80
2019-04-10T16:18:13.548Z,68.60
2019-04-10T16:20:43.195Z,68.80
2019-04-10T16:23:14.273Z,69.60
2019-04-10T16:25:44.937Z,69.90
2019-04-10T16:28:14.509Z,71.20
2019-04-10T16:30:43.254Z,70.40
2019-04-10T16:33:11.660Z,71.00
2019-04-10T16:35:40.187Z,71.40
2019-04-10T16:38:08.710Z,71.50
2019-04-10T16:40:38.610Z,72.10
2019-04-10T16:43:07.946Z,72.40
2019-04-10T16:45:36.687Z,72.90
2019-04-10T16:48:06.353Z,73.70
2019-04-10T16:50:36.279Z,74.00
2019-04-10T16:53:05.854Z,74.40
2019-04-10T16:55:34.626Z,74.90
2019-04-10T16:58:03.187Z,75.50
2019-04-10T17:00:31.756Z,76.20
2019-04-10T17:03:00.215Z,76.90
2019-04-10T17:05:28.632Z,77.20
2019-04-10T17:07:57.343Z,77.70
2019-04-10T17:10:28.993Z,78.30
2019-04-10T17:12:58.281Z,78.70
2019-04-10T17:15:28.063Z,79.10
2019-04-10T17:17:56.915Z,80.00
2019-04-10T17:20:26.644Z,80.50
2019-04-10T17:22:56.355Z,80.90
2019-04-10T17:25:26.349Z,81.20
2019-04-10T17:27:56.176Z,81.50
2019-04-10T17:30:25.482Z,81.90
2019-04-10T17:32:54.338Z,82.40
2019-04-10T17:35:23.372Z,82.80
2019-04-10T17:37:51.847Z,83.10
2019-04-10T17:40:30.117Z,82.90
2019-04-10T17:42:50.778Z,83.00
2019-04-10T17:45:20.263Z,83.10
2019-04-10T17:47:49.351Z,83.30
2019-04-10T17:50:18.462Z,83.40
2019-04-10T17:52:47.264Z,83.60
2019-04-10T17:55:15.868Z,84.00
2019-04-10T17:58:05.354Z,84.30
2019-04-10T18:00:35.564Z,84.30
2019-04-10T18:03:05.325Z,84.40
2019-04-10T18:05:34.955Z,84.50
2019-04-10T18:08:03.577Z,84.50
2019-04-10T18:10:43.850Z,84.80
2019-04-10T18:13:02.971Z,85.00
2019-04-10T18:15:32.429Z,85.50
2019-04-10T18:18:01.091Z,85.70
2019-04-10T18:20:29.919Z,86.00
2019-04-10T18:22:58.731Z,86.40
2019-04-10T18:25:27.693Z,86.60
2019-04-10T18:27:56.912Z,86.70
2019-04-10T18:30:25.443Z,86.90
2019-04-10T18:32:54.059Z,87.80
2019-04-10T18:35:22.719Z,87.10
2019-04-10T18:37:51.145Z,87.30
2019-04-10T18:40:19.573Z,87.60
2019-04-10T18:42:48.043Z,88.00
2019-04-10T18:45:17.529Z,88.10
2019-04-10T18:47:46.136Z,88.30
2019-04-10T18:50:14.738Z,88.40
2019-04-10T18:52:43.512Z,88.60
2019-04-10T18:55:12.230Z,88.80
2019-04-10T18:57:41.077Z,89.10
2019-04-10T19:00:28.235Z,89.10
2019-04-10T19:02:59.268Z,89.20
2019-04-10T19:05:29.958Z,89.20
2019-04-10T19:07:58.765Z,89.00
2019-04-10T19:10:28.584Z,89.00
2019-04-10T19:12:57.324Z,89.00
2019-04-10T19:15:25.865Z,89.10
2019-04-10T19:17:55.232Z,89.30
2019-04-10T19:20:24.676Z,89.50
2019-04-10T19:22:53.358Z,89.80
2019-04-10T19:25:22.727Z,90.00
2019-04-10T19:27:51.224Z,90.10
2019-04-10T19:30:24.193Z,90.10
2019-04-10T19:32:52.591Z,90.10
2019-04-10T19:35:21.419Z,90.30
2019-04-10T19:37:51.298Z,90.30
2019-04-10T19:40:19.989Z,90.30
2019-04-10T19:42:49.334Z,90.30
2019-04-10T19:45:17.856Z,90.30
2019-04-10T19:47:46.411Z,90.30
2019-04-10T19:50:15.169Z,90.30
2019-04-10T19:52:44.641Z,90.30
2019-04-10T19:55:13.580Z,90.30
2019-04-10T19:57:42.087Z,90.40
2019-04-10T20:00:12.620Z,90.40
2019-04-10T20:02:41.715Z,90.30
2019-04-10T20:05:10.498Z,90.20
2019-04-10T20:07:38.950Z,90.10
2019-04-10T20:10:08.795Z,90.00
2019-04-10T20:12:37.412Z,90.20
2019-04-10T20:15:10.058Z,90.00
2019-04-10T20:17:38.611Z,90.10
2019-04-10T20:20:27.113Z,90.00
2019-04-10T20:22:55.692Z,89.80
2019-04-10T20:25:24.225Z,89.70
2019-04-10T20:27:52.617Z,89.60
2019-04-10T20:30:23.721Z,89.80
2019-04-10T20:32:52.467Z,89.50
2019-04-10T20:35:22.092Z,89.40
2019-04-10T20:37:51.261Z,89.40
2019-04-10T20:40:20.755Z,89.40
2019-04-10T20:42:49.244Z,89.60
2019-04-10T20:45:17.732Z,89.90
2019-04-10T20:47:46.923Z,90.00
2019-04-10T20:50:15.475Z,90.00
2019-04-10T20:52:45.198Z,90.10
2019-04-10T20:55:13.824Z,90.20
2019-04-10T20:57:42.235Z,90.20
2019-04-10T21:00:13.515Z,90.30
2019-04-10T21:02:42.641Z,90.30
2019-04-10T21:05:12.591Z,90.30
2019-04-10T21:07:41.706Z,90.50
2019-04-10T21:10:10.360Z,90.60
2019-04-10T21:12:39.786Z,90.60
2019-04-10T21:15:09.045Z,90.70
2019-04-10T21:17:37.578Z,90.70
2019-04-10T21:20:07.976Z,90.80
2019-04-10T21:22:36.813Z,90.80
2019-04-10T21:25:08.345Z,90.90
2019-04-10T21:27:37.635Z,91.00
2019-04-10T21:30:22.797Z,90.90
2019-04-10T21:32:55.292Z,91.00
2019-04-10T21:35:25.077Z,91.10
2019-04-10T21:37:53.500Z,91.20
2019-04-10T21:40:22.773Z,91.20
2019-04-10T21:42:51.898Z,91.30
2019-04-10T21:45:20.500Z,91.20
2019-04-10T21:47:50.262Z,91.30
2019-04-10T21:50:20.014Z,91.30
2019-04-10T21:52:49.669Z,91.40
2019-04-10T21:55:19.337Z,91.50
2019-04-10T21:57:48.895Z,91.60
2019-04-10T22:00:20.581Z,91.70
2019-04-10T22:02:49.090Z,91.70
2019-04-10T22:05:17.999Z,91.70
2019-04-10T22:08:16.826Z,91.80
2019-04-10T22:10:50.281Z,91.90
2019-04-10T22:13:19.778Z,92.30
2019-04-10T22:15:49.087Z,92.70
2019-04-10T22:18:18.026Z,93.10
2019-04-10T22:20:47.866Z,93.50
2019-04-10T22:23:16.383Z,93.80
2019-04-10T22:25:45.787Z,94.00
2019-04-10T22:28:14.929Z,94.10
2019-04-10T22:30:43.766Z,94.10
2019-04-10T22:33:12.228Z,94.00
2019-04-10T22:35:40.639Z,94.00
2019-04-10T22:38:09.063Z,94.20
2019-04-10T22:40:37.887Z,99.90
2019-04-10T22:43:07.400Z,99.90
2019-04-10T22:45:36.048Z,98.00
2019-04-10T22:48:04.719Z,97.30
2019-04-10T22:50:34.349Z,98.50
2019-04-10T22:53:03.056Z,99.90
2019-04-10T22:55:31.784Z,99.60
2019-04-10T22:58:00.341Z,99.90
2019-04-10T23:00:32.732Z,99.90
2019-04-10T23:03:02.875Z,98.30
2019-04-10T23:05:32.365Z,98.30
2019-04-10T23:08:01.182Z,99.80
2019-04-10T23:10:29.863Z,99.90
2019-04-10T23:13:02.895Z,99.10
2019-04-10T23:15:28.614Z,94.20
2019-04-10T23:17:57.330Z,93.70
2019-04-10T23:20:25.991Z,94.70
2019-04-10T23:22:54.822Z,93.50
2019-04-10T23:25:24.577Z,93.50
2019-04-10T23:27:55.920Z,93.60
2019-04-10T23:30:24.654Z,94.00
2019-04-10T23:32:53.516Z,99.90
2019-04-10T23:35:22.202Z,99.90
2019-04-10T23:37:51.140Z,94.70
2019-04-10T23:40:20.897Z,93.50
2019-04-10T23:43:02.149Z,94.30
2019-04-10T23:45:19.799Z,93.50
2019-04-10T23:47:48.716Z,93.50
2019-04-10T23:50:18.501Z,93.50
2019-04-10T23:52:47.941Z,94.00
2019-04-10T23:55:17.679Z,93.50
2019-04-10T23:57:46.418Z,93.50
